• Join FlightAware (Why Join?)
  • Login
  • US Flag 
02:42AM EDT


 

Airport Tracker/Info


-or-


 

Live Flight TrackerFlight Track Log ✈ CSN3952 ✈ 18-Jun-2013 ✈ ZGKL / KWL - ZGSZ / SZX

Flight Track Log - Related Links

Times and Time Zones

All times are in EDT time to prevent confusion due to time zone crossing. See the CSN3952 flight status page for this flight to view local times or setup timezone preferences in your user account.

Time Position Orientation Groundspeed Altitude Reporting Facility
EDT Latitude Longitude Course Direction KTS MPH feet Rate Location/Type
11:28AM 25.1477 110.1461 126° Southeast  Level Estimated
11:29AM 25.0772 110.2530 126° Southeast  Level Estimated
11:30AM 25.0067 110.3597 126° Southeast  Level Estimated
11:31AM 24.9361 110.4663 126° Southeast  Level Estimated
11:32AM 24.8654 110.5727 126° Southeast  Level Estimated
11:33AM 24.7946 110.6791 126° Southeast  Level Estimated
11:34AM 24.7237 110.7853 126° Southeast  Level Estimated
11:35AM 24.6528 110.8914 126° Southeast  Level Estimated
11:36AM 24.5818 110.9974 126° Southeast  Level Estimated
11:37AM 24.5108 111.1032 126° Southeast  Level Estimated
11:38AM 24.4396 111.2089 126° Southeast  Level Estimated
11:39AM 24.3684 111.3146 126° Southeast  Level Estimated
11:40AM 24.2971 111.4201 127° Southeast  Level Estimated
11:41AM 24.2257 111.5254 127° Southeast  Level Estimated
11:42AM 24.1543 111.6307 127° Southeast  Level Estimated
11:43AM 24.0828 111.7358 127° Southeast  Level Estimated
11:44AM 24.0112 111.8409 127° Southeast  Level Estimated
11:45AM 23.9396 111.9458 127° Southeast  Level Estimated
11:46AM 23.8678 112.0506 127° Southeast  Level Estimated
11:47AM 23.7960 112.1552 127° Southeast  Level Estimated
11:48AM 23.7242 112.2598 127° Southeast  Level Estimated
11:49AM 23.6522 112.3642 127° Southeast  Level Estimated
11:50AM 23.5802 112.4686 127° Southeast  Level Estimated
11:51AM 23.5081 112.5728 127° Southeast  Level Estimated
11:52AM 23.4360 112.6769 127° Southeast  Level Estimated
11:53AM 23.3638 112.7809 127° Southeast  Level Estimated
11:54AM 23.2915 112.8848 127° Southeast  Level Estimated
11:55AM 23.2192 112.9885 127° Southeast  Level Estimated
11:56AM 23.1467 113.0922 127° Southeast  Level Estimated
11:57AM 23.0742 113.1957 127° Southeast  Level Estimated
11:58AM 23.0017 113.2991 127° Southeast  Level Estimated
11:59AM 22.9291 113.4024 127° Southeast  Level Estimated
12:00PM 22.8564 113.5056 127° Southeast  Level Estimated
12:01PM 22.7836 113.6087 127° Southeast  Level Estimated
12:02PM 22.7108 113.7117 127° Southeast  Level Estimated
12:03PM 22.6395 113.8124 127° Southeast  Level Estimated
12:04PM 22.6395 113.8124 25° Northeast  Level Estimated
12:05PM 22.6395 113.8124 25° Northeast  Level Estimated
12:06PM 22.6395 113.8124 25° Northeast  Level Estimated
12:07PM 22.6395 113.8124 25° Northeast  Level Estimated
12:08PM 22.6395 113.8124 25° Northeast  Level Estimated
12:09PM 22.6395 113.8124 25° Northeast  Level Estimated
12:10PM 22.6395 113.8124 25° Northeast  Level Estimated
12:11PM 22.6395 113.8124 25° Northeast  Level Estimated
12:12PM 22.6395 113.8124 25° Northeast  Level Estimated
12:13PM 22.6395 113.8124 25° Northeast  Level Estimated
12:14PM 22.6395 113.8124 25° Northeast  Level Estimated
12:15PM 22.6395 113.8124 25° Northeast  Level Estimated
12:16PM 22.6395 113.8124 25° Northeast  Level Estimated
12:17PM 22.6395 113.8124 25° Northeast  Level Estimated
12:18PM 22.6395 113.8124 25° Northeast  Level Estimated
12:19PM 22.6395 113.8124 25° Northeast  Level Estimated
12:20PM 22.6395 113.8124 25° Northeast  Level Estimated
12:21PM 22.6395 113.8124 25° Northeast  Level Estimated